createdAt,value
2016-11-16T19:26:00.250Z,28.1
2016-11-16T19:26:38.293Z,28.17
2016-11-16T19:27:49.462Z,28.28
2016-11-16T19:29:00.586Z,28.17
2016-11-16T19:30:11.365Z,28.14
2016-11-16T19:31:22.600Z,28.25
2016-11-16T19:32:33.535Z,28.28
2016-11-16T19:33:44.273Z,28.32
2016-11-16T19:34:55.344Z,28.22
2016-11-16T19:36:06.073Z,28.25
2016-11-16T19:37:17.347Z,28.29
2016-11-16T19:38:28.060Z,28.31
2016-11-16T19:39:38.784Z,28.25
2016-11-16T19:40:53.004Z,28.29
2016-11-16T19:42:03.704Z,28.25
2016-11-16T19:43:14.443Z,28.31
2016-11-16T19:44:25.482Z,28.35
2016-11-16T19:45:36.556Z,28.28
2016-11-16T19:46:47.293Z,28.35
2016-11-16T19:47:58.044Z,28.32
2016-11-16T19:49:08.846Z,28.46
2016-11-16T19:50:20.870Z,28.4
2016-11-16T19:51:32.686Z,28.29
2016-11-16T19:52:43.432Z,28.16
2016-11-16T19:53:54.666Z,28.07
2016-11-16T19:55:05.502Z,27.94
2016-11-16T19:56:16.448Z,27.86
2016-11-16T19:57:27.701Z,27.76
2016-11-16T19:58:38.826Z,27.62
2016-11-16T19:59:49.580Z,27.47
2016-11-16T20:01:00.921Z,27.21
2016-11-16T20:02:12.076Z,26.92
2016-11-16T20:03:23.211Z,26.92
2016-11-16T20:04:34.382Z,26.92
2016-11-16T20:05:45.119Z,26.89
2016-11-16T20:06:55.959Z,26.84
2016-11-16T20:08:06.622Z,26.73
2016-11-16T20:09:17.379Z,26.58
2016-11-16T20:10:28.120Z,26.49
2016-11-16T20:11:38.809Z,26.28
2016-11-16T20:12:49.653Z,26.21
2016-11-16T20:14:00.375Z,26.2
2016-11-16T20:15:11.086Z,26.11
2016-11-16T20:16:22.209Z,26.02
2016-11-16T20:17:32.896Z,26.01
2016-11-16T20:18:44.074Z,25.97
2016-11-16T20:19:55.199Z,25.8
2016-11-16T20:21:06.419Z,25.75
2016-11-16T20:22:17.651Z,25.65
2016-11-16T20:23:28.435Z,25.67
2016-11-16T20:24:39.168Z,25.59
2016-11-16T20:25:49.944Z,25.38
2016-11-16T20:27:02.216Z,25.34
2016-11-16T20:28:12.909Z,25.1
2016-11-16T20:29:23.630Z,24.76
2016-11-16T20:30:34.515Z,24.54
2016-11-16T20:31:45.239Z,24.27
2016-11-16T20:32:56.495Z,24.17
2016-11-16T20:34:07.192Z,24.17
2016-11-16T20:35:18.658Z,24.12
2016-11-16T20:36:29.500Z,24
2016-11-16T20:37:40.692Z,23.86
2016-11-16T20:38:51.830Z,23.7
2016-11-16T20:40:02.547Z,23.47
2016-11-16T20:41:13.702Z,23.35
2016-11-16T20:42:24.799Z,23.38
2016-11-16T20:43:36.244Z,23.29
2016-11-16T20:44:46.876Z,23.35
2016-11-16T20:45:57.617Z,23.31
2016-11-16T20:47:08.711Z,23.4
2016-11-16T20:48:19.569Z,23.34
2016-11-16T20:49:30.802Z,23.24
2016-11-16T20:50:41.954Z,23.19
2016-11-16T20:51:52.759Z,23.02
2016-11-16T20:53:03.945Z,22.96
2016-11-16T20:54:15.168Z,22.87
2016-11-16T20:55:25.818Z,22.82
2016-11-16T20:56:37.065Z,22.82
2016-11-16T20:57:48.115Z,22.78
2016-11-16T20:58:59.224Z,22.65
2016-11-16T21:00:10.286Z,22.53
2016-11-16T21:01:21.006Z,22.57
2016-11-16T21:02:31.708Z,22.5
2016-11-16T21:03:43.050Z,22.54
2016-11-16T21:04:53.745Z,22.52
2016-11-16T21:06:04.907Z,22.56
2016-11-16T21:07:15.694Z,22.57
2016-11-16T21:08:26.410Z,22.6
2016-11-16T21:09:37.481Z,22.47
2016-11-16T21:10:48.574Z,22.38
2016-11-16T21:11:59.427Z,22.37
2016-11-16T21:13:10.162Z,22.32
2016-11-16T21:14:20.866Z,22.16
2016-11-16T21:15:32.995Z,22.1
2016-11-16T21:16:44.050Z,22.1
2016-11-16T21:17:54.933Z,21.97
2016-11-16T21:19:06.066Z,21.95
2016-11-16T21:20:17.203Z,21.94
2016-11-16T21:21:27.879Z,21.9
2016-11-16T21:22:38.605Z,21.83
2016-11-16T21:23:49.233Z,21.76
2016-11-16T21:25:00.707Z,21.57
2016-11-16T21:26:11.781Z,21.3
2016-11-16T21:27:22.440Z,21.04
2016-11-16T21:28:33.135Z,20.59
2016-11-16T21:29:43.815Z,20.12
2016-11-16T21:30:54.514Z,19.98
2016-11-16T21:32:06.273Z,20.02
2016-11-16T21:33:17.317Z,20.03
2016-11-16T21:34:29.034Z,19.84
2016-11-16T21:35:39.921Z,19.8
2016-11-16T21:36:50.626Z,19.7
2016-11-16T21:38:01.227Z,19.79
2016-11-16T21:39:12.286Z,19.79
2016-11-16T21:40:23.068Z,19.69
2016-11-16T21:41:33.762Z,19.65
2016-11-16T21:42:44.532Z,19.58
2016-11-16T21:43:55.263Z,19.5
2016-11-16T21:45:06.399Z,19.35
2016-11-16T21:46:17.637Z,19.32
2016-11-16T21:47:28.551Z,19.18
2016-11-16T21:49:52.922Z,19.14
2016-11-16T21:51:04.936Z,19.01
2016-11-16T21:52:15.623Z,19.08
2016-11-16T21:53:26.763Z,19.01
2016-11-16T21:54:37.443Z,19.11
2016-11-16T21:55:48.598Z,19.05
2016-11-16T21:56:59.793Z,18.95
2016-11-16T21:58:10.536Z,19.02
2016-11-16T21:59:21.470Z,19.17
2016-11-16T22:00:32.538Z,19.23
2016-11-16T22:01:43.314Z,19.21
2016-11-16T22:02:55.843Z,18.94
2016-11-16T22:04:06.526Z,18.97
2016-11-16T22:05:17.161Z,18.92
2016-11-16T22:06:28.215Z,18.86
2016-11-16T22:07:38.966Z,18.77
2016-11-16T22:08:49.635Z,18.84
2016-11-16T22:10:00.817Z,18.79
2016-11-16T22:11:12.048Z,18.97
2016-11-16T22:12:22.743Z,18.95
2016-11-16T22:13:34.193Z,18.99
2016-11-16T22:14:44.851Z,19.06
2016-11-16T22:15:55.529Z,19.14
2016-11-16T22:17:06.332Z,19.14
2016-11-16T22:18:17.412Z,19.13
2016-11-16T22:19:28.464Z,19.17
2016-11-16T22:20:39.569Z,19.25
2016-11-16T22:21:50.644Z,19.2
2016-11-16T22:23:01.337Z,19.2
2016-11-16T22:24:11.993Z,19.14
2016-11-16T22:25:23.044Z,19.14
2016-11-16T22:26:33.751Z,19.2
2016-11-16T22:27:44.364Z,19.05
2016-11-16T22:28:56.029Z,18.95
2016-11-16T22:30:06.745Z,18.99
2016-11-16T22:31:17.475Z,18.9
2016-11-16T22:32:28.623Z,18.9
2016-11-16T22:33:39.736Z,18.95
2016-11-16T22:34:51.249Z,18.97
2016-11-16T22:36:01.996Z,19.02
2016-11-16T22:37:12.697Z,19.13
2016-11-16T22:38:23.777Z,19.02
2016-11-16T22:39:34.936Z,19.06
2016-11-16T22:40:46.079Z,19.11
2016-11-16T22:41:57.184Z,19.05
2016-11-16T22:43:07.899Z,19.05
2016-11-16T22:44:18.634Z,19.13
2016-11-16T22:45:29.320Z,19.15
2016-11-16T22:46:40.736Z,19.11
2016-11-16T22:47:52.660Z,19.06
2016-11-16T22:49:03.370Z,19.08
2016-11-16T22:50:14.492Z,19.02
2016-11-16T22:51:25.206Z,19.01
2016-11-16T22:52:36.020Z,18.9
2016-11-16T22:53:47.073Z,18.97
2016-11-16T22:54:58.201Z,18.87
2016-11-16T22:56:08.866Z,18.92
2016-11-16T22:57:20.380Z,18.91
2016-11-16T22:58:31.080Z,18.87
2016-11-16T22:59:41.708Z,18.92
2016-11-16T23:00:52.436Z,18.97
2016-11-16T23:02:03.139Z,18.94
2016-11-16T23:03:13.899Z,19.02
2016-11-16T23:04:25.081Z,19.18
2016-11-16T23:05:35.807Z,18.99
2016-11-16T23:06:46.424Z,19.01
2016-11-16T23:07:57.526Z,19.1
2016-11-16T23:09:08.667Z,19.01
2016-11-16T23:10:20.114Z,18.9
2016-11-16T23:11:31.278Z,18.94
2016-11-16T23:12:41.967Z,18.95
2016-11-16T23:13:53.444Z,18.94
2016-11-16T23:15:04.132Z,18.97
2016-11-16T23:16:14.910Z,18.94
2016-11-16T23:17:25.669Z,18.98
2016-11-16T23:18:36.415Z,19.08
2016-11-16T23:19:47.565Z,19.08
2016-11-16T23:20:58.290Z,19.06
2016-11-16T23:22:09.100Z,19.01
2016-11-16T23:23:20.958Z,19.06
2016-11-16T23:24:31.683Z,19.13
2016-11-16T23:25:42.730Z,19.15
2016-11-16T23:26:53.357Z,19.17
2016-11-16T23:28:04.178Z,19.23
2016-11-16T23:29:15.276Z,19.25
2016-11-16T23:30:25.985Z,19.28
2016-11-16T23:31:37.036Z,19.42
2016-11-16T23:32:47.696Z,19.38
2016-11-16T23:33:58.610Z,19.47
2016-11-16T23:35:09.841Z,19.33
2016-11-16T23:36:21.309Z,19.33
2016-11-16T23:37:32.417Z,19.33
2016-11-16T23:38:44.392Z,19.17
2016-11-16T23:39:55.500Z,19.17
2016-11-16T23:41:06.264Z,19.23
2016-11-16T23:42:17.318Z,19.29
2016-11-16T23:43:28.389Z,19.29
2016-11-16T23:44:39.604Z,19.35
2016-11-16T23:45:50.340Z,19.24
2016-11-16T23:47:01.821Z,19.42
2016-11-16T23:48:13.452Z,19.47
2016-11-16T23:49:24.149Z,19.29
2016-11-16T23:50:34.789Z,19.33
2016-11-16T23:51:45.470Z,19.28
2016-11-16T23:52:56.228Z,19.21
2016-11-16T23:54:07.862Z,19.15
2016-11-16T23:55:18.548Z,19.17
2016-11-16T23:56:29.635Z,19.24
2016-11-16T23:57:41.257Z,19.15
2016-11-16T23:58:52.435Z,19.18
